Time;durP1;ratioP1;P1;durP2;ratioP2;P2;SDS_P1;SDS_P2;PMS_P1;PMS_P2;Temp;Humidity;BMP_temperature;BMP_pressure;BME280_temperature;BME280_humidity;BME280_pressure;Samples;Min_cycle;Max_cycle;Signal;HPM_P1;HPM_P2
2021/04/24 00:00:44;;;;;;;12.63;4.72;;;;;;;;;;5012592;28;20014;-81
2021/04/24 00:03:10;;;;;;;9.43;4.85;;;;;;;;;;5022698;28;20028;-83
2021/04/24 00:05:38;;;;;;;8.65;4.30;;;;;;;;;;5006735;28;20021;-80
2021/04/24 00:08:04;;;;;;;8.52;4.50;;;;;;;;;;5020538;28;20037;-81
2021/04/24 00:10:31;;;;;;;11.10;4.88;;;;;;;;;;4992990;28;20021;-82
2021/04/24 00:12:56;;;;;;;9.98;4.57;;;;;;;;;;5015325;28;20053;-81
2021/04/24 00:15:22;;;;;;;11.00;4.72;;;;;;;;;;5002691;28;20049;-82
2021/04/24 00:17:47;;;;;;;11.15;5.10;;;;;;;;;;5030348;28;20048;-80
2021/04/24 00:20:14;;;;;;;14.43;5.40;;;;;;;;;;5041947;28;20017;-81
2021/04/24 00:22:40;;;;;;;14.05;5.80;;;;;;;;;;5026531;28;20028;-82
2021/04/24 00:25:06;;;;;;;12.18;5.60;;;;;;;;;;5015769;28;20022;-83
2021/04/24 00:27:31;;;;;;;9.52;5.22;;;;;;;;;;4992108;28;20044;-82
2021/04/24 00:29:56;;;;;;;10.65;5.78;;;;;;;;;;5011734;28;20076;-82
2021/04/24 00:32:21;;;;;;;12.95;5.93;;;;;;;;;;5013942;28;20022;-81
2021/04/24 00:34:47;;;;;;;15.73;5.85;;;;;;;;;;5016143;28;20022;-82
2021/04/24 00:37:13;;;;;;;13.52;6.03;;;;;;;;;;5015456;28;20046;-81
2021/04/24 00:39:38;;;;;;;14.63;6.07;;;;;;;;;;5017123;28;20032;-80
2021/04/24 00:42:03;;;;;;;13.88;6.18;;;;;;;;;;5021684;28;20018;-81
2021/04/24 00:44:29;;;;;;;10.80;5.55;;;;;;;;;;5020532;28;20021;-81
2021/04/24 00:46:54;;;;;;;17.73;6.47;;;;;;;;;;5024678;28;20064;-80
2021/04/24 00:49:19;;;;;;;14.25;6.05;;;;;;;;;;5010416;28;20042;-82
2021/04/24 00:51:44;;;;;;;16.17;6.35;;;;;;;;;;5026348;28;20009;-81
2021/04/24 00:54:10;;;;;;;11.45;5.80;;;;;;;;;;5028147;28;20053;-80
2021/04/24 00:56:35;;;;;;;11.15;5.82;;;;;;;;;;5032897;28;20025;-80
2021/04/24 00:59:01;;;;;;;14.40;5.68;;;;;;;;;;5046524;28;20018;-79
2021/04/24 01:01:26;;;;;;;12.15;5.85;;;;;;;;;;5015571;28;20053;-82
2021/04/24 01:03:51;;;;;;;11.88;5.78;;;;;;;;;;5032742;28;20022;-81
2021/04/24 01:06:16;;;;;;;10.70;5.20;;;;;;;;;;5020147;28;20018;-82
2021/04/24 01:08:42;;;;;;;9.80;5.65;;;;;;;;;;5023225;28;20026;-81
2021/04/24 01:11:07;;;;;;;11.43;4.80;;;;;;;;;;5017063;28;20087;-81
2021/04/24 01:13:32;;;;;;;9.80;4.63;;;;;;;;;;5012196;28;20484;-81
2021/04/24 01:15:57;;;;;;;11.55;5.15;;;;;;;;;;5008535;28;20025;-81
2021/04/24 01:18:23;;;;;;;11.95;5.47;;;;;;;;;;4999370;28;20037;-81
2021/04/24 01:20:48;;;;;;;9.63;5.43;;;;;;;;;;5020568;28;20036;-83
2021/04/24 01:23:13;;;;;;;8.55;5.03;;;;;;;;;;5024709;28;20026;-81
2021/04/24 01:25:39;;;;;;;10.65;4.78;;;;;;;;;;5047659;28;20029;-82
2021/04/24 01:28:04;;;;;;;13.00;5.00;;;;;;;;;;5026826;28;20041;-82
2021/04/24 01:30:31;;;;;;;11.95;5.28;;;;;;;;;;5009688;28;20022;-81
2021/04/24 01:32:57;;;;;;;10.93;5.03;;;;;;;;;;5022139;28;20053;-82
2021/04/24 01:35:24;;;;;;;13.30;5.13;;;;;;;;;;5016468;28;20068;-84
2021/04/24 01:37:50;;;;;;;11.98;5.00;;;;;;;;;;5014391;28;20053;-80
2021/04/24 01:40:16;;;;;;;11.52;4.95;;;;;;;;;;5022219;28;20017;-81
2021/04/24 01:42:42;;;;;;;12.43;4.88;;;;;;;;;;5013100;28;20057;-81
2021/04/24 01:45:09;;;;;;;9.40;4.28;;;;;;;;;;5023502;28;20045;-81
2021/04/24 01:47:35;;;;;;;9.98;4.45;;;;;;;;;;5021192;28;20022;-81
2021/04/24 01:50:00;;;;;;;8.43;4.15;;;;;;;;;;5021754;28;20253;-82
2021/04/24 01:52:35;;;;;;;10.35;4.70;;;;;;;;;;5012666;28;20117;-81
2021/04/24 01:55:01;;;;;;;8.75;4.18;;;;;;;;;;5023700;28;20038;-82
2021/04/24 01:57:26;;;;;;;9.18;4.30;;;;;;;;;;5016954;28;20029;-81
2021/04/24 01:59:51;;;;;;;6.85;3.50;;;;;;;;;;5020794;28;20021;-80
2021/04/24 02:02:16;;;;;;;7.38;4.72;;;;;;;;;;5010638;28;20519;-81
2021/04/24 02:04:42;;;;;;;10.90;4.20;;;;;;;;;;5018981;28;20025;-80
2021/04/24 02:07:09;;;;;;;9.52;3.90;;;;;;;;;;5011794;28;20022;-82
2021/04/24 02:09:35;;;;;;;13.50;3.92;;;;;;;;;;5004937;28;20535;-80
2021/04/24 02:12:04;;;;;;;10.18;4.07;;;;;;;;;;5024428;28;20049;-81
2021/04/24 02:14:30;;;;;;;;;;;;;;;;;;5014654;28;20078;-80
2021/04/24 02:16:55;;;;;;;14.57;4.82;;;;;;;;;;5017906;28;19916;-80
2021/04/24 02:19:20;;;;;;;8.60;4.03;;;;;;;;;;5023264;28;20427;-81
2021/04/24 02:21:45;;;;;;;10.02;3.95;;;;;;;;;;5011210;28;20508;-80
2021/04/24 02:24:11;;;;;;;7.80;4.05;;;;;;;;;;5014404;28;20068;-81
2021/04/24 02:26:36;;;;;;;10.05;4.00;;;;;;;;;;4995270;28;20026;-82
2021/04/24 02:29:01;;;;;;;9.18;4.20;;;;;;;;;;5009341;28;20025;-80
2021/04/24 02:31:27;;;;;;;8.23;3.97;;;;;;;;;;5039654;28;20073;-80
2021/04/24 02:33:52;;;;;;;8.70;4.15;;;;;;;;;;5036910;28;20073;-80
2021/04/24 02:36:17;;;;;;;8.95;3.65;;;;;;;;;;5013601;28;20104;-81
2021/04/24 02:38:48;;;;;;;10.38;4.65;;;;;;;;;;5029002;28;20551;-83
2021/04/24 02:41:14;;;;;;;10.32;4.47;;;;;;;;;;4999512;28;20022;-80
2021/04/24 02:43:39;;;;;;;14.63;4.00;;;;;;;;;;5010099;28;20030;-78
2021/04/24 02:46:04;;;;;;;8.15;4.03;;;;;;;;;;4992909;28;20389;-82
2021/04/24 02:48:29;;;;;;;11.02;4.38;;;;;;;;;;5027114;28;20037;-80
2021/04/24 02:50:54;;;;;;;7.68;4.13;;;;;;;;;;4983882;28;20474;-81
2021/04/24 02:53:20;;;;;;;8.73;3.90;;;;;;;;;;5004887;28;20040;-80
2021/04/24 02:55:45;;;;;;;9.27;4.70;;;;;;;;;;5025298;28;20026;-82
2021/04/24 02:58:10;;;;;;;13.07;4.65;;;;;;;;;;5017785;28;20105;-80
2021/04/24 03:00:36;;;;;;;8.73;3.88;;;;;;;;;;5013716;28;20476;-81
2021/04/24 03:03:02;;;;;;;7.82;3.85;;;;;;;;;;5023981;28;20079;-81
2021/04/24 03:05:28;;;;;;;9.15;3.75;;;;;;;;;;5007654;28;20018;-81
2021/04/24 03:07:53;;;;;;;11.07;4.15;;;;;;;;;;4998196;28;20029;-81
2021/04/24 03:10:19;;;;;;;8.55;4.15;;;;;;;;;;4999591;28;20512;-81
2021/04/24 03:12:44;;;;;;;8.73;4.43;;;;;;;;;;5021186;28;20056;-81
2021/04/24 03:15:09;;;;;;;11.23;4.28;;;;;;;;;;5011884;28;20079;-80
2021/04/24 03:17:34;;;;;;;11.93;4.38;;;;;;;;;;5016702;28;20560;-82
2021/04/24 03:20:00;;;;;;;11.32;4.05;;;;;;;;;;5002823;28;20656;-81
2021/04/24 03:22:25;;;;;;;9.18;4.13;;;;;;;;;;5021351;28;20033;-80
2021/04/24 03:24:50;;;;;;;11.43;4.03;;;;;;;;;;5016330;28;20091;-81
2021/04/24 03:27:16;;;;;;;9.10;3.80;;;;;;;;;;5013450;28;20025;-82
2021/04/24 03:29:41;;;;;;;10.43;3.90;;;;;;;;;;5022049;28;20032;-81
2021/04/24 03:32:06;;;;;;;11.30;4.05;;;;;;;;;;5024336;28;20485;-82
2021/04/24 03:34:32;;;;;;;8.82;4.07;;;;;;;;;;5011164;28;20072;-80
2021/04/24 03:36:57;;;;;;;7.78;4.22;;;;;;;;;;5027742;28;20122;-82
2021/04/24 03:39:23;;;;;;;6.83;3.97;;;;;;;;;;5013389;28;20021;-81
2021/04/24 03:41:49;;;;;;;11.27;4.17;;;;;;;;;;4995540;28;20036;-80
2021/04/24 03:44:14;;;;;;;9.47;4.10;;;;;;;;;;5016850;28;20316;-80
2021/04/24 03:46:39;;;;;;;12.40;4.40;;;;;;;;;;5010712;28;20040;-82
2021/04/24 03:49:05;;;;;;;10.25;4.13;;;;;;;;;;5010997;28;20524;-79
2021/04/24 03:51:31;;;;;;;11.27;4.43;;;;;;;;;;4993914;28;20111;-83
2021/04/24 03:53:56;;;;;;;12.53;4.67;;;;;;;;;;5009754;28;20123;-80
2021/04/24 03:56:21;;;;;;;11.90;4.33;;;;;;;;;;4995352;28;20025;-81
2021/04/24 03:58:46;;;;;;;11.13;4.77;;;;;;;;;;5017765;28;20469;-83
2021/04/24 04:01:11;;;;;;;11.83;4.43;;;;;;;;;;5012529;28;20534;-82
2021/04/24 04:03:37;;;;;;;10.83;4.00;;;;;;;;;;5017072;28;20021;-82
2021/04/24 04:06:02;;;;;;;9.07;4.00;;;;;;;;;;5002501;28;20021;-81
2021/04/24 04:08:27;;;;;;;8.60;3.60;;;;;;;;;;5014088;28;20036;-81
2021/04/24 04:10:52;;;;;;;12.60;3.93;;;;;;;;;;5010154;28;20018;-80
2021/04/24 04:13:18;;;;;;;9.37;3.70;;;;;;;;;;5014765;28;20329;-82
2021/04/24 04:15:43;;;;;;;11.57;3.80;;;;;;;;;;5013126;28;20010;-81
2021/04/24 04:18:08;;;;;;;10.20;3.60;;;;;;;;;;5001993;28;20021;-81
2021/04/24 04:20:35;;;;;;;10.10;3.80;;;;;;;;;;4992918;28;20063;-81
2021/04/24 04:23:00;;;;;;;9.73;3.40;;;;;;;;;;4990382;28;20036;-82
2021/04/24 04:25:25;;;;;;;7.80;3.67;;;;;;;;;;5014312;28;20417;-79
2021/04/24 04:27:51;;;;;;;11.83;4.47;;;;;;;;;;5010640;28;20030;-81
2021/04/24 04:30:17;;;;;;;6.90;3.50;;;;;;;;;;5008920;28;20071;-80
2021/04/24 04:32:42;;;;;;;8.67;3.73;;;;;;;;;;5005684;28;20064;-80
2021/04/24 04:35:09;;;;;;;11.07;4.07;;;;;;;;;;5010436;28;20018;-80
2021/04/24 04:37:34;;;;;;;6.90;3.43;;;;;;;;;;5017526;28;20050;-80
2021/04/24 04:39:59;;;;;;;11.50;4.45;;;;;;;;;;5012721;28;20464;-80
2021/04/24 04:42:25;;;;;;;11.27;4.30;;;;;;;;;;5012482;28;20037;-81
2021/04/24 04:44:51;;;;;;;13.05;4.28;;;;;;;;;;5046897;28;20029;-81
2021/04/24 04:47:16;;;;;;;8.38;4.15;;;;;;;;;;5009223;28;20040;-82
2021/04/24 04:49:41;;;;;;;11.85;3.90;;;;;;;;;;5006514;28;20074;-80
2021/04/24 04:52:06;;;;;;;10.30;3.80;;;;;;;;;;5018793;28;20037;-82
2021/04/24 04:54:32;;;;;;;11.27;3.80;;;;;;;;;;5042143;28;20085;-82
2021/04/24 04:56:57;;;;;;;8.27;3.53;;;;;;;;;;5033344;28;20046;-83
2021/04/24 04:59:22;;;;;;;8.82;3.47;;;;;;;;;;5026797;28;20525;-80
2021/04/24 05:01:47;;;;;;;10.18;4.03;;;;;;;;;;5000277;28;20108;-81
2021/04/24 05:04:14;;;;;;;7.05;3.67;;;;;;;;;;5009609;28;20037;-85
2021/04/24 05:06:39;;;;;;;9.57;3.88;;;;;;;;;;5010940;28;20072;-84
2021/04/24 05:09:04;;;;;;;7.43;3.70;;;;;;;;;;5019311;28;20026;-82
2021/04/24 05:11:30;;;;;;;11.23;3.42;;;;;;;;;;5010264;28;20026;-83
2021/04/24 05:13:55;;;;;;;11.23;3.85;;;;;;;;;;5013738;28;20026;-82
2021/04/24 05:16:20;;;;;;;6.03;3.08;;;;;;;;;;5001304;28;20032;-83
2021/04/24 05:18:45;;;;;;;8.45;3.22;;;;;;;;;;5026752;28;20028;-83
2021/04/24 05:21:11;;;;;;;8.52;3.28;;;;;;;;;;5010860;28;20128;-92
2021/04/24 05:23:36;;;;;;;8.82;3.65;;;;;;;;;;4996971;28;20208;-81
2021/04/24 05:26:01;;;;;;;6.55;3.42;;;;;;;;;;5009812;28;20024;-84
2021/04/24 05:28:27;;;;;;;8.10;3.15;;;;;;;;;;4995026;28;20060;-84
2021/04/24 05:30:52;;;;;;;6.80;2.85;;;;;;;;;;5013145;28;20937;-87
2021/04/24 05:33:18;;;;;;;7.78;3.80;;;;;;;;;;5013896;28;20018;-84
2021/04/24 05:35:43;;;;;;;6.60;3.08;;;;;;;;;;5016773;28;20024;-83
2021/04/24 05:38:08;;;;;;;8.93;3.50;;;;;;;;;;5011167;28;20046;-83
2021/04/24 05:40:33;;;;;;;7.95;2.90;;;;;;;;;;4997376;28;20065;-84
2021/04/24 05:42:59;;;;;;;6.53;3.10;;;;;;;;;;5010356;28;20054;-84
2021/04/24 05:45:24;;;;;;;5.60;2.55;;;;;;;;;;4997534;28;20504;-86
2021/04/24 05:47:50;;;;;;;6.00;2.80;;;;;;;;;;4994232;28;20035;-85
2021/04/24 05:50:17;;;;;;;6.82;3.15;;;;;;;;;;5026573;28;20002;-85
2021/04/24 05:52:42;;;;;;;8.18;3.10;;;;;;;;;;5035286;28;20029;-84
2021/04/24 05:55:08;;;;;;;6.35;2.78;;;;;;;;;;4997070;28;20504;-82
2021/04/24 05:57:34;;;;;;;4.35;2.08;;;;;;;;;;5018264;28;20025;-83
2021/04/24 05:59:59;;;;;;;6.20;2.63;;;;;;;;;;5017796;28;20051;-85
2021/04/24 06:02:25;;;;;;;5.20;2.45;;;;;;;;;;5027752;28;20042;-86
2021/04/24 06:04:50;;;;;;;4.95;2.22;;;;;;;;;;5031506;28;20026;-88
2021/04/24 06:07:15;;;;;;;6.13;2.60;;;;;;;;;;5005052;28;20029;-85
2021/04/24 06:09:41;;;;;;;8.27;2.40;;;;;;;;;;5028859;28;20038;-86
2021/04/24 06:12:06;;;;;;;5.15;2.33;;;;;;;;;;5002696;28;20096;-84
2021/04/24 06:14:32;;;;;;;7.65;2.40;;;;;;;;;;5031027;28;20052;-85
2021/04/24 06:16:58;;;;;;;6.40;2.38;;;;;;;;;;4996507;28;20026;-87
2021/04/24 06:19:24;;;;;;;5.55;2.25;;;;;;;;;;4999329;28;20049;-84
2021/04/24 06:21:49;;;;;;;7.38;2.30;;;;;;;;;;5026209;28;20069;-85
2021/04/24 06:24:14;;;;;;;5.97;2.45;;;;;;;;;;5021552;28;20017;-86
2021/04/24 06:26:39;;;;;;;5.95;2.42;;;;;;;;;;5015235;28;20018;-86
2021/04/24 06:29:06;;;;;;;4.45;2.60;;;;;;;;;;4996037;28;20052;-88
2021/04/24 06:31:31;;;;;;;5.97;2.65;;;;;;;;;;5024754;28;20100;-87
2021/04/24 06:33:56;;;;;;;5.03;2.67;;;;;;;;;;5004493;28;20088;-86
2021/04/24 06:36:23;;;;;;;5.30;2.97;;;;;;;;;;5003627;28;20027;-86
2021/04/24 06:38:48;;;;;;;7.15;3.08;;;;;;;;;;5014977;28;20718;-88
2021/04/24 06:41:14;;;;;;;5.47;2.65;;;;;;;;;;4998708;28;20034;-85
2021/04/24 06:43:39;;;;;;;6.00;3.00;;;;;;;;;;4999074;28;20056;-86
2021/04/24 06:46:04;;;;;;;7.07;3.30;;;;;;;;;;5030154;28;20056;-84
2021/04/24 06:48:29;;;;;;;9.80;3.47;;;;;;;;;;5000042;28;20042;-85
2021/04/24 06:50:57;;;;;;;5.97;3.40;;;;;;;;;;5005203;28;20396;-84
2021/04/24 06:53:22;;;;;;;6.97;3.65;;;;;;;;;;4991511;28;20056;-84
2021/04/24 06:55:48;;;;;;;6.55;3.45;;;;;;;;;;5033118;28;20029;-82
2021/04/24 06:58:13;;;;;;;8.88;4.15;;;;;;;;;;5030706;28;20559;-83
2021/04/24 07:00:38;;;;;;;8.10;3.90;;;;;;;;;;4992896;28;20048;-85
2021/04/24 07:03:04;;;;;;;10.43;4.20;;;;;;;;;;4996992;28;20473;-86
2021/04/24 07:05:29;;;;;;;10.95;4.00;;;;;;;;;;5012655;28;20042;-87
2021/04/24 07:07:54;;;;;;;10.73;3.60;;;;;;;;;;5037065;28;20060;-84
2021/04/24 07:10:19;;;;;;;9.98;4.32;;;;;;;;;;5015491;28;20036;-88
2021/04/24 07:12:46;;;;;;;9.18;4.53;;;;;;;;;;4999447;28;20026;-86
2021/04/24 07:15:13;;;;;;;9.05;4.00;;;;;;;;;;4996472;28;20029;-84
2021/04/24 07:17:38;;;;;;;9.27;4.93;;;;;;;;;;5020365;28;20026;-83
2021/04/24 07:20:04;;;;;;;9.45;3.80;;;;;;;;;;4994583;28;20018;-86
2021/04/24 07:22:29;;;;;;;7.30;4.43;;;;;;;;;;5008068;28;20022;-82
2021/04/24 07:24:55;;;;;;;9.13;4.72;;;;;;;;;;5010445;28;20057;-85
2021/04/24 07:27:20;;;;;;;10.38;4.50;;;;;;;;;;5025428;28;20436;-86
2021/04/24 07:29:45;;;;;;;11.90;4.35;;;;;;;;;;5014471;28;20041;-83
2021/04/24 07:32:10;;;;;;;7.45;3.78;;;;;;;;;;5029616;28;20029;-85
2021/04/24 07:34:35;;;;;;;8.63;4.20;;;;;;;;;;5006173;28;20026;-83
2021/04/24 07:37:01;;;;;;;8.25;4.32;;;;;;;;;;5014004;28;20037;-86
2021/04/24 07:39:27;;;;;;;13.65;4.32;;;;;;;;;;5029499;28;20492;-91
2021/04/24 07:41:54;;;;;;;11.77;4.20;;;;;;;;;;5016834;28;20014;-92
2021/04/24 07:44:19;;;;;;;8.05;4.07;;;;;;;;;;5037108;28;20097;-89
2021/04/24 07:46:45;;;;;;;8.85;4.07;;;;;;;;;;5010156;28;20041;-91
2021/04/24 07:49:10;;;;;;;7.88;4.15;;;;;;;;;;5017970;28;20068;-89
2021/04/24 07:51:36;;;;;;;9.80;4.63;;;;;;;;;;5038013;28;20085;-82
2021/04/24 07:54:01;;;;;;;9.30;4.65;;;;;;;;;;5034021;28;20036;-91
2021/04/24 07:56:27;;;;;;;9.52;4.32;;;;;;;;;;5000668;28;20029;-83
2021/04/24 07:58:52;;;;;;;9.80;5.13;;;;;;;;;;5021414;28;20029;-84
2021/04/24 08:01:18;;;;;;;8.30;4.60;;;;;;;;;;5016635;28;20048;-83
2021/04/24 08:03:45;;;;;;;11.88;4.30;;;;;;;;;;5044480;28;20029;-86
2021/04/24 08:06:11;;;;;;;9.90;5.25;;;;;;;;;;5018547;28;20065;-82
2021/04/24 08:08:36;;;;;;;9.15;4.82;;;;;;;;;;4999381;28;20052;-83
2021/04/24 08:11:01;;;;;;;10.02;4.88;;;;;;;;;;5021819;28;20021;-84
2021/04/24 08:13:27;;;;;;;9.77;4.78;;;;;;;;;;5018062;28;20022;-83
2021/04/24 08:15:52;;;;;;;11.07;4.75;;;;;;;;;;4999966;28;20040;-86
2021/04/24 08:18:17;;;;;;;10.60;5.10;;;;;;;;;;5005035;28;20036;-82
2021/04/24 08:20:42;;;;;;;10.05;4.32;;;;;;;;;;5017270;28;20532;-82
2021/04/24 08:23:08;;;;;;;6.82;3.95;;;;;;;;;;5027001;28;20141;-82
2021/04/24 08:25:33;;;;;;;9.55;4.35;;;;;;;;;;5021438;28;20080;-81
2021/04/24 08:27:58;;;;;;;8.32;4.45;;;;;;;;;;5010711;28;20034;-82
2021/04/24 08:30:26;;;;;;;10.20;4.65;;;;;;;;;;5010378;28;20038;-83
2021/04/24 08:32:51;;;;;;;10.18;4.07;;;;;;;;;;5013362;28;20050;-80
2021/04/24 08:35:17;;;;;;;12.10;4.68;;;;;;;;;;4996543;28;20065;-80
2021/04/24 08:37:43;;;;;;;9.00;4.43;;;;;;;;;;5013563;28;20087;-81
2021/04/24 08:40:09;;;;;;;11.32;4.65;;;;;;;;;;5005011;28;20093;-83
2021/04/24 08:42:35;;;;;;;9.85;5.18;;;;;;;;;;5025320;28;20022;-85
2021/04/24 08:45:00;;;;;;;9.63;5.40;;;;;;;;;;5014533;28;20090;-83
2021/04/24 08:47:27;;;;;;;11.52;5.57;;;;;;;;;;5042226;28;20079;-84
2021/04/24 08:49:54;;;;;;;10.18;5.22;;;;;;;;;;5041142;28;20066;-83
2021/04/24 08:52:20;;;;;;;12.38;5.93;;;;;;;;;;5011031;28;20354;-85
2021/04/24 08:54:45;;;;;;;11.68;5.85;;;;;;;;;;5021763;28;20037;-82
2021/04/24 08:57:11;;;;;;;9.85;5.53;;;;;;;;;;5034926;28;20017;-83
2021/04/24 08:59:36;;;;;;;14.07;5.68;;;;;;;;;;5017881;28;20022;-88
2021/04/24 09:02:02;;;;;;;13.90;5.60;;;;;;;;;;5022036;28;20028;-83
2021/04/24 09:04:27;;;;;;;14.40;6.53;;;;;;;;;;5028793;28;20462;-83
2021/04/24 09:06:52;;;;;;;13.57;6.63;;;;;;;;;;5035481;28;20026;-82
2021/04/24 09:09:23;;;;;;;10.75;5.63;;;;;;;;;;5025819;28;20037;-79
2021/04/24 09:11:48;;;;;;;10.82;5.55;;;;;;;;;;5021344;28;20022;-81
2021/04/24 09:14:15;;;;;;;15.63;6.80;;;;;;;;;;5015800;28;20138;-83
2021/04/24 09:16:41;;;;;;;10.07;5.38;;;;;;;;;;5009440;28;20524;-82
2021/04/24 09:19:25;;;;;;;9.73;5.05;;;;;;;;;;5013209;28;20030;-83
2021/04/24 09:22:09;;;;;;;9.98;5.47;;;;;;;;;;5024322;28;20022;-83
2021/04/24 09:24:38;;;;;;;12.13;6.03;;;;;;;;;;5010673;28;20022;-84
2021/04/24 09:27:04;;;;;;;12.32;5.55;;;;;;;;;;5023193;28;20052;-82
2021/04/24 09:29:30;;;;;;;13.93;5.50;;;;;;;;;;4998065;28;20551;-82
2021/04/24 09:32:14;;;;;;;9.23;5.80;;;;;;;;;;4995632;28;20077;-81
2021/04/24 09:34:39;;;;;;;13.18;6.00;;;;;;;;;;5026041;28;20018;-80
2021/04/24 09:37:05;;;;;;;13.50;5.80;;;;;;;;;;5017944;28;20515;-83
2021/04/24 09:39:42;;;;;;;13.90;6.05;;;;;;;;;;5002941;28;20044;-81
2021/04/24 09:42:08;;;;;;;11.93;6.05;;;;;;;;;;5017195;28;20033;-80
2021/04/24 09:44:33;;;;;;;11.00;5.25;;;;;;;;;;5018618;28;20021;-82
2021/04/24 09:46:59;;;;;;;8.65;5.00;;;;;;;;;;5022862;28;20026;-82
2021/04/24 09:49:27;;;;;;;9.77;6.20;;;;;;;;;;5022576;28;20404;-83
2021/04/24 09:51:54;;;;;;;9.27;5.47;;;;;;;;;;5018949;28;20030;-83
2021/04/24 09:54:20;;;;;;;12.65;6.65;;;;;;;;;;5016534;28;20447;-82
2021/04/24 09:56:59;;;;;;;10.82;5.15;;;;;;;;;;5025219;28;20052;-85
2021/04/24 09:59:24;;;;;;;13.20;6.55;;;;;;;;;;5021214;28;20068;-84
2021/04/24 10:01:56;;;;;;;10.80;5.78;;;;;;;;;;5031794;28;20037;-91
2021/04/24 10:04:22;;;;;;;9.57;4.68;;;;;;;;;;4998376;28;20054;-83
2021/04/24 10:06:47;;;;;;;10.70;5.32;;;;;;;;;;5019417;28;20037;-84
2021/04/24 10:09:12;;;;;;;9.57;5.25;;;;;;;;;;5033156;28;20027;-82
2021/04/24 10:11:38;;;;;;;9.95;5.40;;;;;;;;;;5020590;28;20164;-85
2021/04/24 10:14:05;;;;;;;14.55;6.57;;;;;;;;;;5002161;28;20072;-79
2021/04/24 10:16:43;;;;;;;10.98;5.50;;;;;;;;;;5000301;28;20022;-85
2021/04/24 10:19:15;;;;;;;13.70;5.60;;;;;;;;;;5005899;28;20391;-86
2021/04/24 10:21:41;;;;;;;15.20;6.80;;;;;;;;;;5034537;28;20023;-84
2021/04/24 10:24:07;;;;;;;10.57;5.95;;;;;;;;;;5038321;28;20021;-85
2021/04/24 10:26:33;;;;;;;18.02;6.40;;;;;;;;;;4998110;28;20025;-83
2021/04/24 10:29:00;;;;;;;11.52;6.45;;;;;;;;;;5016451;28;20497;-84
2021/04/24 10:31:25;;;;;;;10.70;5.50;;;;;;;;;;5012206;28;20024;-84
2021/04/24 10:33:51;;;;;;;15.70;6.97;;;;;;;;;;5014167;28;20112;-85
2021/04/24 10:36:18;;;;;;;14.38;6.97;;;;;;;;;;5025009;28;20021;-87
2021/04/24 10:38:45;;;;;;;16.50;7.30;;;;;;;;;;5010817;28;20050;-86
2021/04/24 10:41:11;;;;;;;14.82;7.35;;;;;;;;;;5017151;28;20017;-87
2021/04/24 10:43:36;;;;;;;12.80;5.57;;;;;;;;;;5004789;28;20018;-85
2021/04/24 10:46:21;;;;;;;11.77;5.60;;;;;;;;;;5000334;28;20028;-81
2021/04/24 10:48:46;;;;;;;12.10;5.55;;;;;;;;;;5024878;28;20120;-83
2021/04/24 10:51:11;;;;;;;14.55;6.00;;;;;;;;;;4997373;28;20053;-84
2021/04/24 10:53:37;;;;;;;10.23;6.15;;;;;;;;;;5004166;28;20025;-79
2021/04/24 10:56:02;;;;;;;10.63;6.05;;;;;;;;;;4999949;28;20025;-80
2021/04/24 10:58:28;;;;;;;10.77;6.72;;;;;;;;;;5019864;28;20393;-87
2021/04/24 11:00:55;;;;;;;15.82;7.07;;;;;;;;;;4994844;28;20032;-85
2021/04/24 11:03:45;;;;;;;13.30;6.60;;;;;;;;;;5023790;28;20504;-84
2021/04/24 11:06:10;;;;;;;;;;;;;;;;;;5003193;28;20040;-83
2021/04/24 11:08:36;;;;;;;11.27;5.25;;;;;;;;;;5009133;28;20008;-84
2021/04/24 11:11:02;;;;;;;11.13;5.55;;;;;;;;;;5038637;28;20029;-85
2021/04/24 11:13:38;;;;;;;10.98;5.28;;;;;;;;;;5020833;28;20041;-84
2021/04/24 11:16:04;;;;;;;10.73;5.70;;;;;;;;;;5022231;28;20021;-83
2021/04/24 11:18:31;;;;;;;12.13;5.65;;;;;;;;;;5005891;28;20026;-84
2021/04/24 11:21:03;;;;;;;10.88;6.53;;;;;;;;;;5018505;28;20434;-84
2021/04/24 11:23:43;;;;;;;9.52;5.85;;;;;;;;;;5022458;28;20052;-82
2021/04/24 11:26:15;;;;;;;9.77;5.47;;;;;;;;;;5017079;28;20026;-83
2021/04/24 11:28:57;;;;;;;8.93;5.40;;;;;;;;;;5003821;28;20037;-84
2021/04/24 11:31:41;;;;;;;13.65;6.38;;;;;;;;;;5015363;28;20468;-85
2021/04/24 11:34:22;;;;;;;11.43;5.55;;;;;;;;;;5015532;28;20503;-83
2021/04/24 11:36:47;;;;;;;10.48;6.13;;;;;;;;;;5002928;28;20140;-81
2021/04/24 11:39:12;;;;;;;9.85;6.07;;;;;;;;;;4992214;28;20477;-80
2021/04/24 11:41:45;;;;;;;13.23;7.13;;;;;;;;;;5015337;28;20513;-82
2021/04/24 11:44:21;;;;;;;13.23;6.13;;;;;;;;;;5010223;28;20096;-83
2021/04/24 11:46:49;;;;;;;13.95;6.30;;;;;;;;;;4993499;28;20050;-81
2021/04/24 11:49:15;;;;;;;10.73;5.95;;;;;;;;;;5025592;28;20556;-80
2021/04/24 11:52:00;;;;;;;13.30;5.25;;;;;;;;;;5012975;28;20025;-80
2021/04/24 11:54:27;;;;;;;10.05;4.90;;;;;;;;;;5019459;28;20022;-79
2021/04/24 11:56:53;;;;;;;11.80;5.40;;;;;;;;;;5010329;28;20053;-81
2021/04/24 11:59:19;;;;;;;12.13;6.15;;;;;;;;;;5016759;28;20053;-80
2021/04/24 12:01:44;;;;;;;13.98;5.22;;;;;;;;;;4991342;28;20030;-81
2021/04/24 12:04:45;;;;;;;12.85;6.85;;;;;;;;;;4995255;28;20116;-82
2021/04/24 12:07:12;;;;;;;13.13;7.50;;;;;;;;;;4910265;29;20048;-83
2021/04/24 12:09:46;;;;;;;9.90;5.40;;;;;;;;;;4916719;29;20142;-83
2021/04/24 12:12:12;;;;;;;8.93;5.85;;;;;;;;;;4916523;29;20042;-78
2021/04/24 12:14:38;;;;;;;10.00;5.95;;;;;;;;;;4933548;29;20048;-87
2021/04/24 12:17:10;;;;;;;10.93;5.47;;;;;;;;;;4927841;29;20048;-81
2021/04/24 12:19:37;;;;;;;11.23;5.75;;;;;;;;;;4911295;29;20024;-83
2021/04/24 12:22:08;;;;;;;13.13;7.75;;;;;;;;;;4913033;29;20032;-81
2021/04/24 12:24:34;;;;;;;6.85;3.97;;;;;;;;;;4938158;29;20080;-84
2021/04/24 12:27:20;;;;;;;7.43;3.72;;;;;;;;;;4923908;29;20039;-78
2021/04/24 12:29:46;;;;;;;12.77;4.15;;;;;;;;;;4910777;29;20079;-81
2021/04/24 12:32:14;;;;;;;8.60;5.22;;;;;;;;;;4917766;29;20028;-80
2021/04/24 12:34:40;;;;;;;9.15;5.32;;;;;;;;;;4918392;29;20052;-84
2021/04/24 12:37:08;;;;;;;11.07;4.95;;;;;;;;;;4906854;29;20131;-84
2021/04/24 12:39:33;;;;;;;6.40;4.00;;;;;;;;;;4921392;29;20809;-86
2021/04/24 12:42:00;;;;;;;7.90;3.78;;;;;;;;;;4991449;28;20022;-87
2021/04/24 12:44:29;;;;;;;9.63;4.38;;;;;;;;;;4992666;28;20030;-84
2021/04/24 12:46:54;;;;;;;9.57;4.55;;;;;;;;;;5009724;28;20018;-82
2021/04/24 12:49:19;;;;;;;7.57;4.35;;;;;;;;;;5024896;28;20045;-80
2021/04/24 12:51:58;;;;;;;8.52;5.10;;;;;;;;;;5015598;28;20022;-81
2021/04/24 12:54:23;;;;;;;10.00;5.18;;;;;;;;;;5020516;28;20018;-86
2021/04/24 12:56:48;;;;;;;8.63;4.47;;;;;;;;;;5012211;28;20029;-82
2021/04/24 12:59:14;;;;;;;14.18;5.25;;;;;;;;;;4994050;28;20036;-88
2021/04/24 13:01:48;;;;;;;9.75;4.38;;;;;;;;;;5019239;28;20028;-90
2021/04/24 13:04:14;;;;;;;9.27;4.60;;;;;;;;;;5030109;28;20030;-94
2021/04/24 13:06:52;;;;;;;9.85;5.57;;;;;;;;;;5035841;28;20018;-92
2021/04/24 13:09:20;;;;;;;7.47;4.03;;;;;;;;;;5012557;28;20040;-88
2021/04/24 13:11:45;;;;;;;9.52;4.75;;;;;;;;;;5018093;28;20049;-90
2021/04/24 13:14:12;;;;;;;9.93;5.40;;;;;;;;;;5003910;28;20038;-88
2021/04/24 13:16:37;;;;;;;9.48;4.45;;;;;;;;;;5019125;28;20014;-84
2021/04/24 13:19:03;;;;;;;9.90;5.65;;;;;;;;;;5007415;28;20042;-88
2021/04/24 13:21:30;;;;;;;8.48;4.90;;;;;;;;;;5017595;28;20018;-86
2021/04/24 13:23:58;;;;;;;10.18;5.60;;;;;;;;;;4998715;28;20026;-86
2021/04/24 13:26:24;;;;;;;10.65;4.82;;;;;;;;;;5022438;28;20029;-87
2021/04/24 13:28:49;;;;;;;7.53;4.63;;;;;;;;;;5013149;28;20112;-79
2021/04/24 13:31:14;;;;;;;8.02;4.47;;;;;;;;;;5016531;28;20025;-80
2021/04/24 13:33:39;;;;;;;11.95;4.68;;;;;;;;;;5021195;28;20099;-78
2021/04/24 13:36:05;;;;;;;9.52;5.60;;;;;;;;;;5014624;28;20058;-79
2021/04/24 13:38:31;;;;;;;10.85;5.95;;;;;;;;;;5014598;28;20083;-82
2021/04/24 13:40:56;;;;;;;10.10;5.72;;;;;;;;;;5012198;28;20018;-81
2021/04/24 13:43:25;;;;;;;9.43;4.78;;;;;;;;;;5009684;28;20460;-79
2021/04/24 13:45:50;;;;;;;9.85;4.80;;;;;;;;;;5025083;28;20037;-78
2021/04/24 13:48:16;;;;;;;13.13;5.88;;;;;;;;;;5009479;28;20037;-78
2021/04/24 13:50:41;;;;;;;10.25;4.72;;;;;;;;;;5017583;28;20048;-79
2021/04/24 13:53:11;;;;;;;12.63;5.07;;;;;;;;;;5009768;28;20072;-82
2021/04/24 13:55:37;;;;;;;13.50;5.13;;;;;;;;;;5011705;28;20026;-81
2021/04/24 13:58:05;;;;;;;9.02;4.80;;;;;;;;;;5018613;28;20060;-79
2021/04/24 14:00:31;;;;;;;7.60;4.70;;;;;;;;;;5015900;28;20108;-81
2021/04/24 14:02:59;;;;;;;12.73;5.80;;;;;;;;;;5006634;28;20132;-81
2021/04/24 14:05:24;;;;;;;11.18;6.50;;;;;;;;;;5013334;28;20026;-82
2021/04/24 14:07:49;;;;;;;9.18;4.72;;;;;;;;;;5013659;28;20033;-82
2021/04/24 14:10:14;;;;;;;7.47;4.53;;;;;;;;;;5019881;28;20030;-82
2021/04/24 14:12:43;;;;;;;10.57;6.20;;;;;;;;;;4993235;28;20032;-84
2021/04/24 14:15:18;;;;;;;9.95;4.60;;;;;;;;;;5030914;28;20064;-84
2021/04/24 14:17:44;;;;;;;11.25;5.18;;;;;;;;;;5000506;28;20022;-83
2021/04/24 14:20:10;;;;;;;7.82;5.00;;;;;;;;;;5017186;28;20076;-82
2021/04/24 14:22:36;;;;;;;10.32;5.85;;;;;;;;;;5019467;28;20018;-85
2021/04/24 14:25:02;;;;;;;9.20;4.93;;;;;;;;;;5000792;28;20033;-82
2021/04/24 14:27:27;;;;;;;11.23;5.03;;;;;;;;;;5019523;28;20109;-81
2021/04/24 14:29:52;;;;;;;7.60;4.53;;;;;;;;;;5017499;28;20113;-80
2021/04/24 14:32:18;;;;;;;10.55;6.38;;;;;;;;;;5011691;28;20126;-82